createdAt,value
2022-07-27T00:00:11.134Z,1.20
2022-07-27T00:02:59.598Z,1.10
2022-07-27T00:05:44.879Z,1.10
2022-07-27T00:08:30.392Z,1.10
2022-07-27T00:11:15.640Z,1.10
2022-07-27T00:14:00.838Z,0.90
2022-07-27T00:16:46.249Z,1.00
2022-07-27T00:19:31.378Z,1.00
2022-07-27T00:22:17.160Z,1.13
2022-07-27T00:25:02.288Z,1.30
2022-07-27T00:27:47.730Z,1.27
2022-07-27T00:30:32.933Z,1.10
2022-07-27T00:33:18.030Z,1.10
2022-07-27T00:36:03.481Z,1.10
2022-07-27T00:38:48.965Z,0.97
2022-07-27T00:41:34.422Z,1.10
2022-07-27T00:44:30.512Z,0.97
2022-07-27T00:47:16.167Z,1.00
2022-07-27T00:50:02.116Z,1.13
2022-07-27T00:52:48.612Z,1.20
2022-07-27T00:55:34.636Z,1.00
2022-07-27T00:58:20.102Z,1.20
2022-07-27T01:01:06.344Z,1.00
2022-07-27T01:03:51.699Z,0.87
2022-07-27T01:06:37.280Z,1.20
2022-07-27T01:09:42.040Z,1.07
2022-07-27T01:12:32.218Z,1.00
2022-07-27T01:15:17.890Z,1.00
2022-07-27T01:18:03.862Z,1.10
2022-07-27T01:20:49.235Z,1.03
2022-07-27T01:23:35.132Z,0.80
2022-07-27T01:26:20.514Z,1.20
2022-07-27T01:29:05.804Z,1.00
2022-07-27T01:31:51.150Z,0.97
2022-07-27T01:34:37.006Z,0.80
2022-07-27T01:37:22.219Z,1.00
2022-07-27T01:40:08.098Z,0.90
2022-07-27T01:42:53.420Z,1.10
2022-07-27T01:45:39.970Z,1.00
2022-07-27T01:48:26.357Z,0.80
2022-07-27T01:51:11.773Z,0.97
2022-07-27T01:53:57.133Z,1.20
2022-07-27T01:56:42.396Z,1.00
2022-07-27T01:59:27.732Z,0.80
2022-07-27T02:02:15.648Z,1.10
2022-07-27T02:05:01.595Z,0.80
2022-07-27T02:07:47.503Z,0.80
2022-07-27T02:10:33.731Z,1.07
2022-07-27T02:13:22.865Z,1.10
2022-07-27T02:16:09.743Z,1.10
2022-07-27T02:19:04.823Z,1.10
2022-07-27T02:21:51.057Z,0.70
2022-07-27T02:24:37.948Z,1.00
2022-07-27T02:27:23.348Z,0.90
2022-07-27T02:30:10.642Z,0.90
2022-07-27T02:32:56.295Z,0.93
2022-07-27T02:35:41.535Z,1.03
2022-07-27T02:38:26.879Z,1.00
2022-07-27T02:41:12.141Z,1.10
2022-07-27T02:43:57.505Z,0.90
2022-07-27T02:46:43.287Z,1.57
2022-07-27T02:49:28.486Z,1.10
2022-07-27T02:52:13.827Z,1.30
2022-07-27T02:54:59.096Z,1.20
2022-07-27T02:57:44.512Z,1.20
2022-07-27T03:00:29.715Z,1.30
2022-07-27T03:03:15.195Z,1.10
2022-07-27T03:06:00.466Z,2.00
2022-07-27T03:08:45.840Z,2.10
2022-07-27T03:11:31.459Z,1.80
2022-07-27T03:14:16.948Z,1.27
2022-07-27T03:17:02.347Z,1.40
2022-07-27T03:19:49.757Z,1.60
2022-07-27T03:22:35.212Z,1.50
2022-07-27T03:25:20.812Z,1.50
2022-07-27T03:28:06.296Z,1.40
2022-07-27T03:30:51.693Z,1.10
2022-07-27T03:33:37.280Z,1.20
2022-07-27T03:36:22.865Z,1.40
2022-07-27T03:39:08.206Z,1.30
2022-07-27T03:41:54.240Z,1.17
2022-07-27T03:44:39.676Z,1.30
2022-07-27T03:47:25.059Z,1.10
2022-07-27T03:50:10.671Z,1.57
2022-07-27T03:52:56.337Z,1.37
2022-07-27T03:55:41.657Z,1.40
2022-07-27T03:58:26.911Z,1.10
2022-07-27T04:01:12.429Z,1.20
2022-07-27T04:03:57.664Z,1.13
2022-07-27T04:06:43.515Z,1.27
2022-07-27T04:09:28.873Z,1.50
2022-07-27T04:12:17.396Z,1.30
2022-07-27T04:15:07.114Z,1.33
2022-07-27T04:17:54.550Z,1.13
2022-07-27T04:20:42.561Z,1.30
2022-07-27T04:23:28.064Z,1.13
2022-07-27T04:26:13.270Z,1.50
2022-07-27T04:28:58.761Z,1.30
2022-07-27T04:31:45.585Z,1.20
2022-07-27T04:34:31.424Z,1.23
2022-07-27T04:37:17.206Z,1.00
2022-07-27T04:40:03.283Z,1.53
2022-07-27T04:42:49.815Z,1.27
2022-07-27T04:45:35.641Z,1.60
2022-07-27T04:48:20.981Z,1.03
2022-07-27T04:51:06.292Z,1.10
2022-07-27T04:53:58.233Z,1.20
2022-07-27T04:56:44.263Z,1.27
2022-07-27T04:59:29.418Z,1.23
2022-07-27T05:02:14.882Z,1.57
2022-07-27T05:05:00.740Z,1.23
2022-07-27T05:07:46.127Z,1.23
2022-07-27T05:10:31.703Z,1.33
2022-07-27T05:13:17.234Z,1.30
2022-07-27T05:16:02.841Z,0.97
2022-07-27T05:18:50.918Z,1.10
2022-07-27T05:21:36.275Z,1.27
2022-07-27T05:24:22.092Z,1.30
2022-07-27T05:27:07.650Z,1.20
2022-07-27T05:29:53.348Z,1.40
2022-07-27T05:32:38.911Z,1.30
2022-07-27T05:35:24.327Z,1.23
2022-07-27T05:38:09.859Z,1.30
2022-07-27T05:40:55.271Z,2.00
2022-07-27T05:43:40.553Z,1.67
2022-07-27T05:46:29.635Z,1.37
2022-07-27T05:49:18.377Z,1.50
2022-07-27T05:52:03.647Z,1.40
2022-07-27T05:54:49.055Z,1.07
2022-07-27T05:57:35.185Z,1.30
2022-07-27T06:00:20.697Z,1.40
2022-07-27T06:03:06.271Z,1.67
2022-07-27T06:05:52.146Z,1.40
2022-07-27T06:08:38.173Z,1.50
2022-07-27T06:11:23.525Z,1.60
2022-07-27T06:14:08.812Z,1.50
2022-07-27T06:16:54.865Z,2.10
2022-07-27T06:19:40.380Z,1.50
2022-07-27T06:22:26.319Z,1.50
2022-07-27T06:25:12.319Z,1.40
2022-07-27T06:27:57.838Z,1.07
2022-07-27T06:30:43.874Z,1.30
2022-07-27T06:33:30.897Z,1.43
2022-07-27T06:36:16.820Z,1.33
2022-07-27T06:39:02.595Z,1.10
2022-07-27T06:41:48.225Z,1.30
2022-07-27T06:44:34.432Z,1.20
2022-07-27T06:47:19.911Z,1.20
2022-07-27T06:50:06.583Z,1.40
2022-07-27T06:52:52.755Z,1.50
2022-07-27T06:55:38.232Z,1.83
2022-07-27T06:58:24.250Z,1.50
2022-07-27T07:01:09.781Z,1.30
2022-07-27T07:03:58.089Z,1.20
2022-07-27T07:06:44.500Z,1.50
2022-07-27T07:09:32.654Z,1.57
2022-07-27T07:12:21.367Z,1.00
2022-07-27T07:15:09.189Z,1.37
2022-07-27T07:17:57.370Z,1.40
2022-07-27T07:20:46.636Z,1.20
2022-07-27T07:23:35.222Z,1.50
2022-07-27T07:26:23.815Z,1.40
2022-07-27T07:29:12.581Z,1.17
2022-07-27T07:32:01.649Z,1.20
2022-07-27T07:34:48.396Z,1.03
2022-07-27T07:37:35.489Z,1.50
2022-07-27T07:43:27.366Z,1.00
2022-07-27T07:46:12.884Z,1.23
2022-07-27T07:48:58.121Z,1.00
2022-07-27T07:51:43.574Z,1.43
2022-07-27T07:54:28.823Z,1.30
2022-07-27T07:57:14.111Z,1.30
2022-07-27T07:59:59.933Z,1.10
2022-07-27T08:02:51.446Z,1.10
2022-07-27T08:05:37.637Z,1.20
2022-07-27T08:08:24.692Z,1.47
2022-07-27T08:11:10.784Z,1.13
2022-07-27T08:13:56.260Z,1.30
2022-07-27T08:16:41.695Z,1.40
2022-07-27T08:19:27.265Z,1.07
2022-07-27T08:22:13.089Z,1.10
2022-07-27T08:24:58.710Z,1.30
2022-07-27T08:27:43.932Z,1.33
2022-07-27T08:30:33.877Z,1.73
2022-07-27T08:33:19.419Z,1.40
2022-07-27T08:36:04.916Z,1.27
2022-07-27T08:38:50.547Z,1.27
2022-07-27T08:41:42.071Z,1.30
2022-07-27T08:44:29.787Z,1.33
2022-07-27T08:47:16.080Z,1.80
2022-07-27T08:50:03.350Z,1.00
2022-07-27T08:53:00.603Z,1.30
2022-07-27T08:55:47.745Z,1.23
2022-07-27T08:58:33.186Z,1.07
2022-07-27T09:01:19.240Z,1.00
2022-07-27T09:04:04.717Z,1.20
2022-07-27T09:06:53.161Z,0.90
2022-07-27T09:09:49.426Z,1.17
2022-07-27T09:12:35.939Z,1.23
2022-07-27T09:15:21.434Z,1.20
2022-07-27T09:18:21.077Z,1.17
2022-07-27T09:21:24.473Z,1.80
2022-07-27T09:24:36.766Z,1.70
2022-07-27T09:27:30.473Z,1.43
2022-07-27T09:30:18.988Z,1.27
2022-07-27T09:33:06.602Z,1.20
2022-07-27T09:35:59.574Z,1.50
2022-07-27T09:39:01.669Z,1.17
2022-07-27T09:41:52.274Z,1.47
2022-07-27T09:44:45.008Z,1.20
2022-07-27T09:50:20.825Z,1.37
2022-07-27T09:53:40.791Z,1.40
2022-07-27T09:56:32.945Z,1.23
2022-07-27T09:59:19.581Z,1.23
2022-07-27T10:02:05.416Z,1.40
2022-07-27T10:04:50.958Z,1.30
2022-07-27T10:07:36.748Z,1.40
2022-07-27T10:10:23.531Z,1.60
2022-07-27T10:13:08.911Z,1.53
2022-07-27T10:15:55.305Z,1.33
2022-07-27T10:18:55.688Z,1.83
2022-07-27T10:21:45.205Z,2.37
2022-07-27T10:24:34.781Z,2.50
2022-07-27T10:27:20.767Z,1.87
2022-07-27T10:30:06.729Z,1.90
2022-07-27T10:32:52.280Z,2.03
2022-07-27T10:35:37.602Z,2.10
2022-07-27T10:38:23.282Z,2.10
2022-07-27T10:41:34.934Z,2.00
2022-07-27T10:44:23.216Z,2.37
2022-07-27T10:47:08.391Z,1.90
2022-07-27T10:50:16.363Z,1.77
2022-07-27T10:53:07.359Z,2.10
2022-07-27T10:55:53.359Z,1.60
2022-07-27T10:58:39.373Z,1.83
2022-07-27T11:01:25.115Z,2.23
2022-07-27T11:04:11.161Z,1.40
2022-07-27T11:10:07.350Z,1.30
2022-07-27T11:12:55.113Z,1.77
2022-07-27T11:15:59.768Z,1.50
2022-07-27T11:19:05.285Z,1.23
2022-07-27T11:21:52.513Z,1.63
2022-07-27T11:24:37.840Z,1.30
2022-07-27T11:27:25.342Z,1.33
2022-07-27T11:30:25.853Z,1.20
2022-07-27T11:33:11.369Z,1.30
2022-07-27T11:36:02.224Z,1.10
2022-07-27T11:38:54.767Z,1.10
2022-07-27T11:42:08.011Z,1.20
2022-07-27T11:44:47.652Z,1.20
2022-07-27T11:47:34.194Z,1.20
2022-07-27T11:50:19.727Z,0.80
2022-07-27T11:53:06.820Z,1.20
2022-07-27T11:55:52.836Z,1.30
2022-07-27T11:59:01.534Z,1.20
2022-07-27T12:01:53.934Z,1.30
2022-07-27T12:04:42.419Z,1.00
2022-07-27T12:07:33.283Z,1.20
2022-07-27T12:10:20.264Z,1.05
2022-07-27T12:13:06.257Z,1.00
2022-07-27T12:16:02.811Z,0.97
2022-07-27T12:18:48.456Z,1.00
2022-07-27T12:21:33.928Z,0.90
2022-07-27T12:24:19.895Z,1.07
2022-07-27T12:27:11.934Z,0.83
2022-07-27T12:30:16.517Z,0.82
2022-07-27T12:33:04.523Z,1.10
2022-07-27T12:35:50.498Z,1.27
2022-07-27T12:38:43.645Z,0.77
2022-07-27T12:41:32.581Z,1.13
2022-07-27T12:44:18.185Z,0.87
2022-07-27T12:47:27.644Z,0.93
2022-07-27T12:50:19.821Z,1.00
2022-07-27T12:53:05.638Z,1.10
2022-07-27T12:55:51.304Z,0.80
2022-07-27T12:58:37.477Z,1.03
2022-07-27T13:01:22.965Z,0.90
2022-07-27T13:04:08.728Z,0.80
2022-07-27T13:06:54.100Z,0.70
2022-07-27T13:10:02.967Z,1.10
2022-07-27T13:12:46.669Z,0.90
2022-07-27T13:15:32.069Z,0.83
2022-07-27T13:18:22.852Z,0.80
2022-07-27T13:21:09.408Z,1.10
2022-07-27T13:23:54.915Z,1.00
2022-07-27T13:26:42.084Z,1.10
2022-07-27T13:29:28.538Z,0.73
2022-07-27T13:32:14.164Z,1.07
2022-07-27T13:35:04.563Z,0.90
2022-07-27T13:37:49.901Z,0.73
2022-07-27T13:40:35.173Z,1.17
2022-07-27T13:43:20.492Z,0.90
2022-07-27T13:46:08.438Z,1.10
2022-07-27T13:48:53.666Z,0.90
2022-07-27T13:51:38.893Z,0.80
2022-07-27T13:54:24.714Z,0.90
2022-07-27T13:57:10.301Z,1.00
2022-07-27T13:59:57.655Z,0.90
2022-07-27T14:02:44.767Z,0.80
2022-07-27T14:05:31.277Z,1.17
2022-07-27T14:08:18.863Z,1.37
2022-07-27T14:11:04.516Z,1.00
2022-07-27T14:13:50.391Z,0.87
2022-07-27T14:17:01.045Z,1.00
2022-07-27T14:19:50.241Z,1.30
2022-07-27T14:22:35.759Z,1.40
2022-07-27T14:25:21.317Z,1.73
2022-07-27T14:28:06.640Z,1.93
2022-07-27T14:30:55.836Z,1.80
2022-07-27T14:33:41.978Z,1.63
2022-07-27T14:36:27.302Z,1.40
2022-07-27T14:39:13.342Z,1.23
2022-07-27T14:41:59.029Z,1.23
2022-07-27T14:44:47.620Z,1.10
2022-07-27T14:47:33.389Z,1.40
2022-07-27T14:50:19.092Z,0.97
2022-07-27T14:53:05.097Z,1.07
2022-07-27T14:55:50.690Z,1.50
2022-07-27T14:58:36.089Z,1.10
2022-07-27T15:01:21.555Z,0.97
2022-07-27T15:04:06.857Z,1.00
2022-07-27T15:06:52.522Z,1.03
2022-07-27T15:09:37.729Z,1.07
2022-07-27T15:12:23.108Z,1.50
2022-07-27T15:15:09.104Z,0.90
2022-07-27T15:17:54.649Z,1.00
2022-07-27T15:20:40.608Z,1.00
2022-07-27T15:23:26.635Z,0.90
2022-07-27T15:26:13.191Z,0.80
2022-07-27T15:28:59.118Z,1.00
2022-07-27T15:31:44.722Z,0.80
2022-07-27T15:34:30.548Z,1.00
2022-07-27T15:37:16.405Z,0.90
2022-07-27T15:40:22.129Z,1.10
2022-07-27T15:43:12.231Z,0.70
2022-07-27T15:45:57.932Z,1.00
2022-07-27T15:48:43.219Z,1.10
2022-07-27T15:51:28.815Z,0.90
2022-07-27T15:54:15.391Z,1.03
2022-07-27T15:57:01.054Z,1.03
2022-07-27T15:59:46.687Z,1.10
2022-07-27T16:02:32.391Z,1.07
2022-07-27T16:05:20.451Z,1.20
2022-07-27T16:08:09.407Z,1.20
2022-07-27T16:10:55.112Z,0.83
2022-07-27T16:13:40.652Z,0.93
2022-07-27T16:16:30.676Z,1.07
2022-07-27T16:19:17.138Z,1.10
2022-07-27T16:22:04.092Z,1.27
2022-07-27T16:24:49.747Z,0.97
2022-07-27T16:27:35.254Z,0.90
2022-07-27T16:30:21.717Z,1.00
2022-07-27T16:33:07.521Z,1.00
2022-07-27T16:35:53.364Z,1.07
2022-07-27T16:38:48.020Z,0.70
2022-07-27T16:41:35.742Z,0.77
2022-07-27T16:44:21.629Z,0.70
2022-07-27T16:47:09.667Z,1.00
2022-07-27T16:49:56.090Z,0.90
2022-07-27T16:52:42.022Z,0.90
2022-07-27T16:55:28.589Z,0.90
2022-07-27T16:58:14.238Z,0.70
2022-07-27T17:01:00.679Z,1.13
2022-07-27T17:03:48.971Z,1.20
2022-07-27T17:06:35.417Z,1.00
2022-07-27T17:09:20.857Z,1.10
2022-07-27T17:12:06.967Z,0.90
2022-07-27T17:14:55.249Z,0.90
2022-07-27T17:17:40.705Z,0.83
2022-07-27T17:20:33.008Z,1.00
2022-07-27T17:23:21.284Z,0.90
2022-07-27T17:26:08.064Z,1.00
2022-07-27T17:28:54.073Z,0.93
2022-07-27T17:31:39.471Z,1.10
2022-07-27T17:34:24.728Z,1.03
2022-07-27T17:37:10.313Z,1.20
2022-07-27T17:39:55.729Z,1.17
2022-07-27T17:42:41.521Z,1.00
2022-07-27T17:45:27.466Z,1.10
2022-07-27T17:48:13.430Z,0.90
2022-07-27T17:50:58.745Z,1.07
2022-07-27T17:53:44.264Z,0.80
2022-07-27T17:56:30.898Z,1.17
2022-07-27T17:59:37.067Z,1.10
2022-07-27T18:02:25.264Z,1.43
2022-07-27T18:05:11.528Z,1.30
2022-07-27T18:07:57.573Z,1.40
2022-07-27T18:10:45.226Z,1.23
2022-07-27T18:13:37.945Z,1.37
2022-07-27T18:16:26.732Z,1.00
2022-07-27T18:19:13.800Z,1.33
2022-07-27T18:21:59.962Z,1.50
2022-07-27T18:24:48.048Z,1.10
2022-07-27T18:27:35.790Z,1.33
2022-07-27T18:30:22.716Z,1.50
2022-07-27T18:33:08.121Z,1.43
2022-07-27T18:35:54.587Z,1.10
2022-07-27T18:38:42.240Z,1.10
2022-07-27T18:41:28.403Z,1.10
2022-07-27T18:44:13.914Z,1.00
2022-07-27T18:46:59.243Z,1.40
2022-07-27T18:49:44.538Z,0.90
2022-07-27T18:52:30.079Z,0.87
2022-07-27T18:55:18.193Z,1.10
2022-07-27T18:58:04.197Z,0.80
2022-07-27T19:00:49.602Z,1.00
2022-07-27T19:03:36.197Z,0.90
2022-07-27T19:06:22.453Z,0.80
2022-07-27T19:09:10.169Z,0.97
2022-07-27T19:11:55.672Z,0.90
2022-07-27T19:14:41.230Z,0.90
2022-07-27T19:17:27.462Z,1.07
2022-07-27T19:20:15.543Z,0.83
2022-07-27T19:23:00.959Z,1.10
2022-07-27T19:25:46.611Z,1.00
2022-07-27T19:28:32.181Z,0.90
2022-07-27T19:31:22.436Z,1.10
2022-07-27T19:34:09.448Z,0.87
2022-07-27T19:36:54.952Z,0.80
2022-07-27T19:40:02.610Z,1.03
2022-07-27T19:42:46.228Z,1.10
2022-07-27T19:45:31.862Z,0.90
2022-07-27T19:48:17.216Z,1.00
2022-07-27T19:51:06.859Z,1.10
2022-07-27T19:53:53.220Z,0.90
2022-07-27T19:56:38.544Z,1.30
2022-07-27T19:59:23.694Z,0.77
2022-07-27T20:02:09.285Z,1.10
2022-07-27T20:04:54.633Z,1.17
2022-07-27T20:07:39.903Z,1.23
2022-07-27T20:10:26.042Z,0.90
2022-07-27T20:13:11.771Z,0.93
2022-07-27T20:15:57.261Z,0.93
2022-07-27T20:18:42.598Z,1.00
2022-07-27T20:21:27.800Z,1.00
2022-07-27T20:24:14.135Z,0.80
2022-07-27T20:26:59.517Z,1.03
2022-07-27T20:29:45.022Z,1.03
2022-07-27T20:32:30.136Z,1.10
2022-07-27T20:35:16.175Z,1.00
2022-07-27T20:38:01.774Z,1.00
2022-07-27T20:40:46.979Z,1.00
2022-07-27T20:43:32.871Z,0.87
2022-07-27T20:46:18.607Z,1.20
2022-07-27T20:49:04.797Z,1.00
2022-07-27T20:51:50.636Z,1.00
2022-07-27T20:54:38.420Z,1.00
2022-07-27T20:57:23.803Z,0.97
2022-07-27T21:00:10.611Z,0.97
2022-07-27T21:02:56.607Z,0.90
2022-07-27T21:05:42.262Z,0.90
2022-07-27T21:08:28.678Z,0.97
2022-07-27T21:11:14.557Z,1.00
2022-07-27T21:14:01.149Z,0.90
2022-07-27T21:16:46.593Z,1.20
2022-07-27T21:19:32.326Z,1.07
2022-07-27T21:22:17.595Z,1.10
2022-07-27T21:25:03.368Z,0.90
2022-07-27T21:27:50.282Z,0.80
2022-07-27T21:30:36.415Z,1.20
2022-07-27T21:33:21.807Z,1.20
2022-07-27T21:36:07.843Z,0.93
2022-07-27T21:38:53.398Z,0.90
2022-07-27T21:41:39.181Z,0.90
2022-07-27T21:44:24.695Z,0.80
2022-07-27T21:47:13.725Z,1.07
2022-07-27T21:49:59.911Z,0.90
2022-07-27T21:52:45.054Z,0.70
2022-07-27T21:55:30.276Z,0.90
2022-07-27T21:58:16.560Z,1.10
2022-07-27T22:01:01.927Z,0.60
2022-07-27T22:03:47.374Z,0.90
2022-07-27T22:06:32.554Z,0.80
2022-07-27T22:09:20.108Z,1.00
2022-07-27T22:12:06.047Z,1.10
2022-07-27T22:14:51.503Z,0.80
2022-07-27T22:17:46.147Z,0.90
2022-07-27T22:20:36.596Z,0.80
2022-07-27T22:23:21.972Z,0.93
2022-07-27T22:26:07.276Z,1.03
2022-07-27T22:28:52.673Z,0.90
2022-07-27T22:31:38.263Z,1.00
2022-07-27T22:34:23.529Z,1.00
2022-07-27T22:37:09.193Z,0.70
2022-07-27T22:39:54.816Z,1.00
2022-07-27T22:42:40.036Z,1.20
2022-07-27T22:45:26.102Z,1.07
2022-07-27T22:48:12.028Z,1.10
2022-07-27T22:50:57.511Z,1.07
2022-07-27T22:53:42.961Z,0.90
2022-07-27T22:56:28.186Z,1.10
2022-07-27T22:59:13.879Z,0.83
2022-07-27T23:02:00.097Z,1.07
2022-07-27T23:04:45.754Z,1.07
2022-07-27T23:07:31.385Z,1.00
2022-07-27T23:10:35.122Z,1.00
2022-07-27T23:13:22.936Z,0.90
2022-07-27T23:16:08.251Z,0.87
2022-07-27T23:18:54.831Z,1.00
2022-07-27T23:21:41.752Z,0.97
2022-07-27T23:24:29.061Z,0.90
2022-07-27T23:27:15.123Z,1.10
2022-07-27T23:30:00.494Z,1.00
2022-07-27T23:32:45.790Z,0.90
2022-07-27T23:35:31.407Z,1.03
2022-07-27T23:38:17.107Z,1.10
2022-07-27T23:41:02.411Z,1.10
2022-07-27T23:43:47.808Z,1.00
2022-07-27T23:46:33.275Z,1.13
2022-07-27T23:49:18.718Z,1.00
2022-07-27T23:52:04.715Z,0.80
2022-07-27T23:54:50.188Z,1.00
2022-07-27T23:57:35.630Z,0.97
